sensor_id;sensor_type;location;lat;lon;timestamp;P1;durP1;ratioP1;P2;durP2;ratioP2
66741;SDS011;53654;54.152;19.432;2024-03-17T00:00:51;14.20;;;4.50;;
66741;SDS011;53654;54.152;19.432;2024-03-17T00:03:39;15.00;;;4.60;;
66741;SDS011;53654;54.152;19.432;2024-03-17T00:06:07;11.70;;;4.40;;
66741;SDS011;53654;54.152;19.432;2024-03-17T00:08:35;13.60;;;4.40;;
66741;SDS011;53654;54.152;19.432;2024-03-17T00:11:03;13.50;;;4.70;;
66741;SDS011;53654;54.152;19.432;2024-03-17T00:13:31;12.20;;;4.40;;
66741;SDS011;53654;54.152;19.432;2024-03-17T00:15:59;11.40;;;4.20;;
66741;SDS011;53654;54.152;19.432;2024-03-17T00:18:27;11.80;;;4.60;;
66741;SDS011;53654;54.152;19.432;2024-03-17T00:20:55;14.80;;;4.80;;
66741;SDS011;53654;54.152;19.432;2024-03-17T00:23:23;12.50;;;4.30;;
66741;SDS011;53654;54.152;19.432;2024-03-17T00:25:51;14.20;;;4.30;;
66741;SDS011;53654;54.152;19.432;2024-03-17T00:28:19;12.20;;;4.30;;
66741;SDS011;53654;54.152;19.432;2024-03-17T00:30:48;11.60;;;4.00;;
66741;SDS011;53654;54.152;19.432;2024-03-17T00:33:16;11.00;;;4.30;;
66741;SDS011;53654;54.152;19.432;2024-03-17T00:35:44;12.10;;;4.40;;
66741;SDS011;53654;54.152;19.432;2024-03-17T00:38:12;13.40;;;4.10;;
66741;SDS011;53654;54.152;19.432;2024-03-17T00:40:40;13.70;;;4.00;;
66741;SDS011;53654;54.152;19.432;2024-03-17T00:43:12;14.10;;;4.10;;
66741;SDS011;53654;54.152;19.432;2024-03-17T00:45:40;11.00;;;4.20;;
66741;SDS011;53654;54.152;19.432;2024-03-17T00:48:08;12.50;;;4.50;;
66741;SDS011;53654;54.152;19.432;2024-03-17T00:50:37;14.10;;;4.30;;
66741;SDS011;53654;54.152;19.432;2024-03-17T00:53:05;12.50;;;3.80;;
66741;SDS011;53654;54.152;19.432;2024-03-17T00:55:33;11.50;;;3.90;;
66741;SDS011;53654;54.152;19.432;2024-03-17T00:58:01;12.90;;;4.20;;
66741;SDS011;53654;54.152;19.432;2024-03-17T01:00:29;11.50;;;4.10;;
66741;SDS011;53654;54.152;19.432;2024-03-17T01:02:57;11.90;;;4.60;;
66741;SDS011;53654;54.152;19.432;2024-03-17T01:05:25;10.90;;;3.90;;
66741;SDS011;53654;54.152;19.432;2024-03-17T01:07:52;10.40;;;3.90;;
66741;SDS011;53654;54.152;19.432;2024-03-17T01:10:20;12.80;;;4.20;;
66741;SDS011;53654;54.152;19.432;2024-03-17T01:12:48;12.30;;;3.90;;
66741;SDS011;53654;54.152;19.432;2024-03-17T01:15:16;12.10;;;3.70;;
66741;SDS011;53654;54.152;19.432;2024-03-17T01:17:44;11.30;;;3.80;;
66741;SDS011;53654;54.152;19.432;2024-03-17T01:20:12;15.60;;;4.30;;
66741;SDS011;53654;54.152;19.432;2024-03-17T01:22:39;11.40;;;3.80;;
66741;SDS011;53654;54.152;19.432;2024-03-17T01:25:07;10.60;;;3.60;;
66741;SDS011;53654;54.152;19.432;2024-03-17T01:27:36;12.40;;;3.90;;
66741;SDS011;53654;54.152;19.432;2024-03-17T01:30:04;11.30;;;3.80;;
66741;SDS011;53654;54.152;19.432;2024-03-17T01:32:32;10.60;;;3.70;;
66741;SDS011;53654;54.152;19.432;2024-03-17T01:35:00;11.60;;;3.90;;
66741;SDS011;53654;54.152;19.432;2024-03-17T01:37:28;12.30;;;4.10;;
66741;SDS011;53654;54.152;19.432;2024-03-17T01:39:59;9.10;;;3.60;;
66741;SDS011;53654;54.152;19.432;2024-03-17T01:42:27;11.60;;;3.90;;
66741;SDS011;53654;54.152;19.432;2024-03-17T01:44:56;10.50;;;3.70;;
66741;SDS011;53654;54.152;19.432;2024-03-17T01:47:24;11.80;;;3.60;;
66741;SDS011;53654;54.152;19.432;2024-03-17T01:49:53;12.70;;;3.70;;
66741;SDS011;53654;54.152;19.432;2024-03-17T01:52:22;9.80;;;3.70;;
66741;SDS011;53654;54.152;19.432;2024-03-17T01:54:50;10.30;;;3.60;;
66741;SDS011;53654;54.152;19.432;2024-03-17T01:57:21;9.90;;;3.40;;
66741;SDS011;53654;54.152;19.432;2024-03-17T01:59:49;10.10;;;3.70;;
66741;SDS011;53654;54.152;19.432;2024-03-17T02:02:17;11.70;;;3.50;;
66741;SDS011;53654;54.152;19.432;2024-03-17T02:04:45;10.40;;;3.40;;
66741;SDS011;53654;54.152;19.432;2024-03-17T02:07:12;10.50;;;3.50;;
66741;SDS011;53654;54.152;19.432;2024-03-17T02:09:42;10.30;;;3.40;;
66741;SDS011;53654;54.152;19.432;2024-03-17T02:12:10;11.90;;;3.30;;
66741;SDS011;53654;54.152;19.432;2024-03-17T02:14:39;11.10;;;3.50;;
66741;SDS011;53654;54.152;19.432;2024-03-17T02:17:07;11.10;;;3.50;;
66741;SDS011;53654;54.152;19.432;2024-03-17T02:19:35;13.80;;;3.60;;
66741;SDS011;53654;54.152;19.432;2024-03-17T02:22:02;12.60;;;3.50;;
66741;SDS011;53654;54.152;19.432;2024-03-17T02:24:31;11.70;;;3.50;;
66741;SDS011;53654;54.152;19.432;2024-03-17T02:26:59;10.90;;;3.50;;
66741;SDS011;53654;54.152;19.432;2024-03-17T02:29:27;10.80;;;3.40;;
66741;SDS011;53654;54.152;19.432;2024-03-17T02:31:54;9.50;;;3.40;;
66741;SDS011;53654;54.152;19.432;2024-03-17T02:34:22;9.80;;;3.50;;
66741;SDS011;53654;54.152;19.432;2024-03-17T02:36:51;12.80;;;3.70;;
66741;SDS011;53654;54.152;19.432;2024-03-17T02:39:19;12.00;;;3.70;;
66741;SDS011;53654;54.152;19.432;2024-03-17T02:42:06;13.30;;;3.90;;
66741;SDS011;53654;54.152;19.432;2024-03-17T02:44:35;12.20;;;4.00;;
66741;SDS011;53654;54.152;19.432;2024-03-17T02:47:04;10.20;;;3.50;;
66741;SDS011;53654;54.152;19.432;2024-03-17T02:49:36;11.70;;;3.40;;
66741;SDS011;53654;54.152;19.432;2024-03-17T02:52:07;9.60;;;3.40;;
66741;SDS011;53654;54.152;19.432;2024-03-17T02:54:39;9.10;;;3.60;;
66741;SDS011;53654;54.152;19.432;2024-03-17T02:57:19;10.50;;;3.30;;
66741;SDS011;53654;54.152;19.432;2024-03-17T02:59:48;13.30;;;3.50;;
66741;SDS011;53654;54.152;19.432;2024-03-17T03:02:16;12.20;;;3.40;;
66741;SDS011;53654;54.152;19.432;2024-03-17T03:04:45;11.60;;;3.80;;
66741;SDS011;53654;54.152;19.432;2024-03-17T03:07:13;10.10;;;3.20;;
66741;SDS011;53654;54.152;19.432;2024-03-17T03:09:41;11.00;;;3.20;;
66741;SDS011;53654;54.152;19.432;2024-03-17T03:12:09;13.30;;;3.40;;
66741;SDS011;53654;54.152;19.432;2024-03-17T03:14:36;10.50;;;3.30;;
66741;SDS011;53654;54.152;19.432;2024-03-17T03:17:04;9.30;;;3.10;;
66741;SDS011;53654;54.152;19.432;2024-03-17T03:19:32;9.40;;;3.00;;
66741;SDS011;53654;54.152;19.432;2024-03-17T03:22:00;10.00;;;3.10;;
66741;SDS011;53654;54.152;19.432;2024-03-17T03:24:28;10.80;;;3.50;;
66741;SDS011;53654;54.152;19.432;2024-03-17T03:26:56;10.60;;;3.40;;
66741;SDS011;53654;54.152;19.432;2024-03-17T03:29:24;9.10;;;3.50;;
66741;SDS011;53654;54.152;19.432;2024-03-17T03:31:51;10.90;;;3.70;;
66741;SDS011;53654;54.152;19.432;2024-03-17T03:34:19;11.10;;;3.60;;
66741;SDS011;53654;54.152;19.432;2024-03-17T03:36:47;9.90;;;3.20;;
66741;SDS011;53654;54.152;19.432;2024-03-17T03:39:15;9.60;;;3.30;;
66741;SDS011;53654;54.152;19.432;2024-03-17T03:41:43;6.70;;;2.50;;
66741;SDS011;53654;54.152;19.432;2024-03-17T03:44:11;6.50;;;2.30;;
66741;SDS011;53654;54.152;19.432;2024-03-17T03:46:39;8.50;;;2.40;;
66741;SDS011;53654;54.152;19.432;2024-03-17T03:49:07;7.70;;;2.40;;
66741;SDS011;53654;54.152;19.432;2024-03-17T03:51:35;7.80;;;2.40;;
66741;SDS011;53654;54.152;19.432;2024-03-17T03:54:03;6.30;;;2.30;;
66741;SDS011;53654;54.152;19.432;2024-03-17T03:56:33;6.00;;;2.30;;
66741;SDS011;53654;54.152;19.432;2024-03-17T03:59:01;7.70;;;2.50;;
66741;SDS011;53654;54.152;19.432;2024-03-17T04:01:29;7.50;;;2.50;;
66741;SDS011;53654;54.152;19.432;2024-03-17T04:03:58;7.00;;;3.50;;
66741;SDS011;53654;54.152;19.432;2024-03-17T04:06:25;9.20;;;5.70;;
66741;SDS011;53654;54.152;19.432;2024-03-17T04:08:53;7.30;;;5.20;;
66741;SDS011;53654;54.152;19.432;2024-03-17T04:11:21;6.40;;;4.30;;
66741;SDS011;53654;54.152;19.432;2024-03-17T04:13:49;5.00;;;2.10;;
66741;SDS011;53654;54.152;19.432;2024-03-17T04:16:17;5.70;;;2.10;;
66741;SDS011;53654;54.152;19.432;2024-03-17T04:18:45;3.90;;;1.60;;
66741;SDS011;53654;54.152;19.432;2024-03-17T04:21:13;4.60;;;1.80;;
66741;SDS011;53654;54.152;19.432;2024-03-17T04:23:40;3.50;;;1.60;;
66741;SDS011;53654;54.152;19.432;2024-03-17T04:26:09;2.70;;;1.50;;
66741;SDS011;53654;54.152;19.432;2024-03-17T04:28:37;3.60;;;1.60;;
66741;SDS011;53654;54.152;19.432;2024-03-17T04:31:05;4.10;;;2.10;;
66741;SDS011;53654;54.152;19.432;2024-03-17T04:33:33;3.20;;;1.80;;
66741;SDS011;53654;54.152;19.432;2024-03-17T04:36:02;3.10;;;1.40;;
66741;SDS011;53654;54.152;19.432;2024-03-17T04:38:30;2.50;;;1.00;;
66741;SDS011;53654;54.152;19.432;2024-03-17T04:40:58;2.30;;;1.20;;
66741;SDS011;53654;54.152;19.432;2024-03-17T04:43:32;2.70;;;1.20;;
66741;SDS011;53654;54.152;19.432;2024-03-17T04:46:03;2.80;;;1.20;;
66741;SDS011;53654;54.152;19.432;2024-03-17T04:48:33;1.70;;;1.00;;
66741;SDS011;53654;54.152;19.432;2024-03-17T04:51:01;2.30;;;1.00;;
66741;SDS011;53654;54.152;19.432;2024-03-17T04:53:29;4.30;;;2.00;;
66741;SDS011;53654;54.152;19.432;2024-03-17T04:56:00;2.60;;;1.20;;
66741;SDS011;53654;54.152;19.432;2024-03-17T04:58:29;2.20;;;1.30;;
66741;SDS011;53654;54.152;19.432;2024-03-17T05:00:57;2.70;;;1.40;;
66741;SDS011;53654;54.152;19.432;2024-03-17T05:03:25;2.30;;;2.10;;
66741;SDS011;53654;54.152;19.432;2024-03-17T05:06:00;2.30;;;2.00;;
66741;SDS011;53654;54.152;19.432;2024-03-17T05:08:31;2.60;;;1.60;;
66741;SDS011;53654;54.152;19.432;2024-03-17T05:11:02;2.50;;;1.60;;
66741;SDS011;53654;54.152;19.432;2024-03-17T05:13:35;2.40;;;1.60;;
66741;SDS011;53654;54.152;19.432;2024-03-17T05:16:06;2.70;;;1.30;;
66741;SDS011;53654;54.152;19.432;2024-03-17T05:18:34;2.30;;;1.30;;
66741;SDS011;53654;54.152;19.432;2024-03-17T05:21:03;3.00;;;1.60;;
66741;SDS011;53654;54.152;19.432;2024-03-17T05:23:33;3.80;;;2.00;;
66741;SDS011;53654;54.152;19.432;2024-03-17T05:26:02;2.60;;;1.60;;
66741;SDS011;53654;54.152;19.432;2024-03-17T05:28:33;3.00;;;2.10;;
66741;SDS011;53654;54.152;19.432;2024-03-17T05:31:01;4.10;;;3.10;;
66741;SDS011;53654;54.152;19.432;2024-03-17T05:33:29;3.70;;;3.10;;
66741;SDS011;53654;54.152;19.432;2024-03-17T05:35:57;4.10;;;3.50;;
66741;SDS011;53654;54.152;19.432;2024-03-17T05:38:27;3.90;;;3.20;;
66741;SDS011;53654;54.152;19.432;2024-03-17T05:40:59;4.10;;;2.70;;
66741;SDS011;53654;54.152;19.432;2024-03-17T05:43:30;3.30;;;1.90;;
66741;SDS011;53654;54.152;19.432;2024-03-17T05:46:06;2.30;;;1.60;;
66741;SDS011;53654;54.152;19.432;2024-03-17T05:48:35;2.70;;;1.90;;
66741;SDS011;53654;54.152;19.432;2024-03-17T05:51:07;3.20;;;2.10;;
66741;SDS011;53654;54.152;19.432;2024-03-17T05:53:37;3.70;;;2.60;;
66741;SDS011;53654;54.152;19.432;2024-03-17T05:56:07;3.90;;;3.00;;
66741;SDS011;53654;54.152;19.432;2024-03-17T05:58:37;3.50;;;3.30;;
66741;SDS011;53654;54.152;19.432;2024-03-17T06:01:05;3.80;;;3.50;;
66741;SDS011;53654;54.152;19.432;2024-03-17T06:03:36;3.90;;;3.30;;
66741;SDS011;53654;54.152;19.432;2024-03-17T06:06:05;3.60;;;3.30;;
66741;SDS011;53654;54.152;19.432;2024-03-17T06:08:39;4.30;;;3.90;;
66741;SDS011;53654;54.152;19.432;2024-03-17T06:11:07;4.60;;;4.10;;
66741;SDS011;53654;54.152;19.432;2024-03-17T06:13:35;3.50;;;2.60;;
66741;SDS011;53654;54.152;19.432;2024-03-17T06:16:04;4.30;;;2.30;;
66741;SDS011;53654;54.152;19.432;2024-03-17T06:18:33;3.60;;;2.40;;
66741;SDS011;53654;54.152;19.432;2024-03-17T06:21:04;3.40;;;2.00;;
66741;SDS011;53654;54.152;19.432;2024-03-17T06:23:33;4.50;;;2.20;;
66741;SDS011;53654;54.152;19.432;2024-03-17T06:26:00;4.00;;;2.30;;
66741;SDS011;53654;54.152;19.432;2024-03-17T06:28:30;3.10;;;2.00;;
66741;SDS011;53654;54.152;19.432;2024-03-17T06:30:58;3.40;;;2.80;;
66741;SDS011;53654;54.152;19.432;2024-03-17T06:33:34;2.70;;;2.40;;
66741;SDS011;53654;54.152;19.432;2024-03-17T06:36:03;2.20;;;2.00;;
66741;SDS011;53654;54.152;19.432;2024-03-17T06:38:32;2.80;;;1.60;;
66741;SDS011;53654;54.152;19.432;2024-03-17T06:41:01;2.60;;;1.60;;
66741;SDS011;53654;54.152;19.432;2024-03-17T06:43:29;3.00;;;1.50;;
66741;SDS011;53654;54.152;19.432;2024-03-17T06:45:58;2.60;;;1.70;;
66741;SDS011;53654;54.152;19.432;2024-03-17T06:48:28;1.60;;;1.30;;
66741;SDS011;53654;54.152;19.432;2024-03-17T06:50:56;2.60;;;1.30;;
66741;SDS011;53654;54.152;19.432;2024-03-17T06:53:25;2.10;;;1.70;;
66741;SDS011;53654;54.152;19.432;2024-03-17T06:55:56;2.20;;;1.30;;
66741;SDS011;53654;54.152;19.432;2024-03-17T06:58:27;2.10;;;1.60;;
66741;SDS011;53654;54.152;19.432;2024-03-17T07:00:57;2.00;;;1.80;;
66741;SDS011;53654;54.152;19.432;2024-03-17T07:03:30;1.60;;;1.40;;
66741;SDS011;53654;54.152;19.432;2024-03-17T07:06:00;1.90;;;1.40;;
66741;SDS011;53654;54.152;19.432;2024-03-17T07:08:31;1.30;;;1.20;;
66741;SDS011;53654;54.152;19.432;2024-03-17T07:13:31;1.30;;;1.10;;
66741;SDS011;53654;54.152;19.432;2024-03-17T07:16:04;1.80;;;1.30;;
66741;SDS011;53654;54.152;19.432;2024-03-17T07:18:36;1.90;;;1.30;;
66741;SDS011;53654;54.152;19.432;2024-03-17T07:21:04;1.90;;;1.20;;
66741;SDS011;53654;54.152;19.432;2024-03-17T07:23:32;1.20;;;1.10;;
66741;SDS011;53654;54.152;19.432;2024-03-17T07:26:01;1.70;;;1.30;;
66741;SDS011;53654;54.152;19.432;2024-03-17T07:28:30;2.00;;;1.50;;
66741;SDS011;53654;54.152;19.432;2024-03-17T07:30:59;2.10;;;1.60;;
66741;SDS011;53654;54.152;19.432;2024-03-17T07:33:29;2.00;;;1.30;;
66741;SDS011;53654;54.152;19.432;2024-03-17T07:35:58;2.10;;;1.10;;
66741;SDS011;53654;54.152;19.432;2024-03-17T07:38:28;2.40;;;1.70;;
66741;SDS011;53654;54.152;19.432;2024-03-17T07:40:58;7.90;;;5.90;;
66741;SDS011;53654;54.152;19.432;2024-03-17T07:43:29;3.00;;;2.50;;
66741;SDS011;53654;54.152;19.432;2024-03-17T07:46:03;1.50;;;1.20;;
66741;SDS011;53654;54.152;19.432;2024-03-17T07:48:36;2.80;;;1.10;;
66741;SDS011;53654;54.152;19.432;2024-03-17T07:51:05;2.80;;;1.80;;
66741;SDS011;53654;54.152;19.432;2024-03-17T07:53:39;2.40;;;2.20;;
66741;SDS011;53654;54.152;19.432;2024-03-17T07:56:09;2.50;;;1.70;;
66741;SDS011;53654;54.152;19.432;2024-03-17T07:58:39;1.40;;;0.80;;
66741;SDS011;53654;54.152;19.432;2024-03-17T08:01:09;1.20;;;0.90;;
66741;SDS011;53654;54.152;19.432;2024-03-17T08:03:39;1.30;;;0.80;;
66741;SDS011;53654;54.152;19.432;2024-03-17T08:06:09;1.50;;;0.70;;
66741;SDS011;53654;54.152;19.432;2024-03-17T08:08:38;1.10;;;0.70;;
66741;SDS011;53654;54.152;19.432;2024-03-17T08:11:06;1.10;;;0.90;;
66741;SDS011;53654;54.152;19.432;2024-03-17T08:13:35;1.30;;;1.00;;
66741;SDS011;53654;54.152;19.432;2024-03-17T08:16:04;1.80;;;1.20;;
66741;SDS011;53654;54.152;19.432;2024-03-17T08:18:33;1.00;;;1.00;;
66741;SDS011;53654;54.152;19.432;2024-03-17T08:21:02;1.00;;;0.90;;
66741;SDS011;53654;54.152;19.432;2024-03-17T08:23:33;1.70;;;0.70;;
66741;SDS011;53654;54.152;19.432;2024-03-17T08:26:09;1.20;;;0.80;;
66741;SDS011;53654;54.152;19.432;2024-03-17T08:28:37;1.10;;;0.90;;
66741;SDS011;53654;54.152;19.432;2024-03-17T08:31:05;1.90;;;1.10;;
66741;SDS011;53654;54.152;19.432;2024-03-17T08:33:33;1.70;;;1.30;;
66741;SDS011;53654;54.152;19.432;2024-03-17T08:36:02;1.70;;;1.20;;
66741;SDS011;53654;54.152;19.432;2024-03-17T08:38:32;1.20;;;0.80;;
66741;SDS011;53654;54.152;19.432;2024-03-17T08:41:04;1.50;;;0.90;;
66741;SDS011;53654;54.152;19.432;2024-03-17T08:43:33;2.80;;;1.20;;
66741;SDS011;53654;54.152;19.432;2024-03-17T08:46:08;1.90;;;1.10;;
66741;SDS011;53654;54.152;19.432;2024-03-17T08:48:38;1.90;;;0.80;;
66741;SDS011;53654;54.152;19.432;2024-03-17T08:51:07;2.60;;;1.10;;
66741;SDS011;53654;54.152;19.432;2024-03-17T08:53:36;2.00;;;1.20;;
66741;SDS011;53654;54.152;19.432;2024-03-17T08:56:08;1.80;;;0.80;;
66741;SDS011;53654;54.152;19.432;2024-03-17T08:58:36;1.00;;;0.70;;
66741;SDS011;53654;54.152;19.432;2024-03-17T09:01:04;1.80;;;0.80;;
66741;SDS011;53654;54.152;19.432;2024-03-17T09:03:34;2.00;;;1.00;;
66741;SDS011;53654;54.152;19.432;2024-03-17T09:06:03;1.30;;;1.20;;
66741;SDS011;53654;54.152;19.432;2024-03-17T09:08:32;1.60;;;1.40;;
66741;SDS011;53654;54.152;19.432;2024-03-17T09:11:01;1.70;;;1.20;;
66741;SDS011;53654;54.152;19.432;2024-03-17T09:13:29;2.00;;;1.00;;
66741;SDS011;53654;54.152;19.432;2024-03-17T09:15:57;1.60;;;1.00;;
66741;SDS011;53654;54.152;19.432;2024-03-17T09:18:29;2.00;;;0.90;;
66741;SDS011;53654;54.152;19.432;2024-03-17T09:21:05;1.50;;;0.90;;
66741;SDS011;53654;54.152;19.432;2024-03-17T09:23:35;1.10;;;1.00;;
66741;SDS011;53654;54.152;19.432;2024-03-17T09:26:05;0.80;;;0.70;;
66741;SDS011;53654;54.152;19.432;2024-03-17T09:28:38;1.10;;;0.80;;
66741;SDS011;53654;54.152;19.432;2024-03-17T09:31:06;1.20;;;1.00;;
66741;SDS011;53654;54.152;19.432;2024-03-17T09:33:35;1.80;;;1.40;;
66741;SDS011;53654;54.152;19.432;2024-03-17T09:36:06;2.30;;;1.60;;
66741;SDS011;53654;54.152;19.432;2024-03-17T09:38:36;2.30;;;1.50;;
66741;SDS011;53654;54.152;19.432;2024-03-17T09:41:06;1.50;;;1.30;;
66741;SDS011;53654;54.152;19.432;2024-03-17T09:43:34;2.50;;;1.70;;
66741;SDS011;53654;54.152;19.432;2024-03-17T09:46:04;2.10;;;1.40;;
66741;SDS011;53654;54.152;19.432;2024-03-17T09:48:32;3.40;;;2.10;;
66741;SDS011;53654;54.152;19.432;2024-03-17T09:51:02;2.50;;;1.60;;
66741;SDS011;53654;54.152;19.432;2024-03-17T09:53:31;1.60;;;1.10;;
66741;SDS011;53654;54.152;19.432;2024-03-17T09:56:06;2.30;;;1.40;;
66741;SDS011;53654;54.152;19.432;2024-03-17T09:58:37;1.60;;;1.10;;
66741;SDS011;53654;54.152;19.432;2024-03-17T10:01:05;1.50;;;1.40;;
66741;SDS011;53654;54.152;19.432;2024-03-17T10:03:39;1.10;;;1.00;;
66741;SDS011;53654;54.152;19.432;2024-03-17T10:06:12;1.70;;;1.30;;
66741;SDS011;53654;54.152;19.432;2024-03-17T10:08:42;1.60;;;1.00;;
66741;SDS011;53654;54.152;19.432;2024-03-17T10:11:10;1.20;;;0.60;;
66741;SDS011;53654;54.152;19.432;2024-03-17T10:13:38;1.00;;;0.90;;
66741;SDS011;53654;54.152;19.432;2024-03-17T10:16:15;1.10;;;1.00;;
66741;SDS011;53654;54.152;19.432;2024-03-17T10:18:48;1.60;;;1.50;;
66741;SDS011;53654;54.152;19.432;2024-03-17T10:21:24;3.20;;;1.80;;
66741;SDS011;53654;54.152;19.432;2024-03-17T10:24:08;1.50;;;1.20;;
66741;SDS011;53654;54.152;19.432;2024-03-17T10:26:37;2.30;;;1.10;;
66741;SDS011;53654;54.152;19.432;2024-03-17T10:29:35;3.10;;;1.80;;
66741;SDS011;53654;54.152;19.432;2024-03-17T10:32:04;2.30;;;1.70;;
66741;SDS011;53654;54.152;19.432;2024-03-17T10:34:46;1.70;;;1.60;;
66741;SDS011;53654;54.152;19.432;2024-03-17T10:37:15;1.00;;;0.90;;
66741;SDS011;53654;54.152;19.432;2024-03-17T10:39:52;1.60;;;0.90;;
66741;SDS011;53654;54.152;19.432;2024-03-17T10:42:27;1.70;;;1.10;;
66741;SDS011;53654;54.152;19.432;2024-03-17T10:44:56;1.80;;;1.20;;
66741;SDS011;53654;54.152;19.432;2024-03-17T10:47:25;1.90;;;1.30;;
66741;SDS011;53654;54.152;19.432;2024-03-17T10:49:55;1.70;;;1.60;;
66741;SDS011;53654;54.152;19.432;2024-03-17T10:52:23;2.70;;;1.90;;
66741;SDS011;53654;54.152;19.432;2024-03-17T10:55:11;2.00;;;1.50;;
66741;SDS011;53654;54.152;19.432;2024-03-17T10:57:52;2.00;;;1.50;;
66741;SDS011;53654;54.152;19.432;2024-03-17T11:00:22;1.50;;;1.30;;
66741;SDS011;53654;54.152;19.432;2024-03-17T11:02:53;1.00;;;0.90;;
66741;SDS011;53654;54.152;19.432;2024-03-17T11:05:26;1.60;;;1.30;;
66741;SDS011;53654;54.152;19.432;2024-03-17T11:08:01;2.60;;;1.50;;
66741;SDS011;53654;54.152;19.432;2024-03-17T11:10:32;2.00;;;1.80;;
66741;SDS011;53654;54.152;19.432;2024-03-17T11:13:02;1.60;;;1.50;;
66741;SDS011;53654;54.152;19.432;2024-03-17T11:20:36;1.50;;;1.30;;
66741;SDS011;53654;54.152;19.432;2024-03-17T11:23:05;3.20;;;2.40;;
66741;SDS011;53654;54.152;19.432;2024-03-17T11:25:37;2.40;;;2.20;;
66741;SDS011;53654;54.152;19.432;2024-03-17T11:28:07;2.10;;;1.40;;
66741;SDS011;53654;54.152;19.432;2024-03-17T11:47:00;1.90;;;1.80;;
66741;SDS011;53654;54.152;19.432;2024-03-17T11:49:36;2.30;;;2.00;;
66741;SDS011;53654;54.152;19.432;2024-03-17T11:52:13;2.40;;;1.90;;
66741;SDS011;53654;54.152;19.432;2024-03-17T11:54:43;3.10;;;2.10;;
66741;SDS011;53654;54.152;19.432;2024-03-17T11:57:20;3.40;;;2.50;;
66741;SDS011;53654;54.152;19.432;2024-03-17T11:59:50;2.90;;;2.10;;
66741;SDS011;53654;54.152;19.432;2024-03-17T12:02:20;1.70;;;1.30;;
66741;SDS011;53654;54.152;19.432;2024-03-17T12:04:51;1.70;;;1.30;;
66741;SDS011;53654;54.152;19.432;2024-03-17T12:07:24;2.20;;;1.70;;
66741;SDS011;53654;54.152;19.432;2024-03-17T12:09:54;2.90;;;2.20;;
66741;SDS011;53654;54.152;19.432;2024-03-17T12:12:24;1.70;;;1.60;;
66741;SDS011;53654;54.152;19.432;2024-03-17T12:15:03;2.20;;;1.60;;
66741;SDS011;53654;54.152;19.432;2024-03-17T12:17:44;2.50;;;2.00;;
66741;SDS011;53654;54.152;19.432;2024-03-17T12:20:18;1.80;;;1.70;;
66741;SDS011;53654;54.152;19.432;2024-03-17T12:22:47;1.50;;;1.40;;
66741;SDS011;53654;54.152;19.432;2024-03-17T12:25:19;2.00;;;1.80;;
66741;SDS011;53654;54.152;19.432;2024-03-17T12:27:53;2.00;;;1.70;;
66741;SDS011;53654;54.152;19.432;2024-03-17T12:30:20;1.90;;;1.50;;
66741;SDS011;53654;54.152;19.432;2024-03-17T12:32:48;1.40;;;1.20;;
66741;SDS011;53654;54.152;19.432;2024-03-17T12:35:17;1.60;;;1.30;;
66741;SDS011;53654;54.152;19.432;2024-03-17T12:37:48;1.70;;;1.50;;
66741;SDS011;53654;54.152;19.432;2024-03-17T12:40:20;1.30;;;1.20;;
66741;SDS011;53654;54.152;19.432;2024-03-17T12:42:50;2.90;;;2.10;;
66741;SDS011;53654;54.152;19.432;2024-03-17T12:45:19;2.40;;;1.50;;
66741;SDS011;53654;54.152;19.432;2024-03-17T12:47:49;2.20;;;2.00;;
66741;SDS011;53654;54.152;19.432;2024-03-17T12:50:18;1.90;;;1.10;;
66741;SDS011;53654;54.152;19.432;2024-03-17T12:52:55;2.70;;;1.60;;
66741;SDS011;53654;54.152;19.432;2024-03-17T12:55:23;1.40;;;1.00;;
66741;SDS011;53654;54.152;19.432;2024-03-17T12:58:10;2.40;;;2.00;;
66741;SDS011;53654;54.152;19.432;2024-03-17T13:03:32;1.90;;;1.70;;
66741;SDS011;53654;54.152;19.432;2024-03-17T13:06:02;3.60;;;2.00;;
66741;SDS011;53654;54.152;19.432;2024-03-17T13:08:33;3.50;;;2.30;;
66741;SDS011;53654;54.152;19.432;2024-03-17T13:11:01;4.70;;;2.10;;
66741;SDS011;53654;54.152;19.432;2024-03-17T13:13:31;2.90;;;2.30;;
66741;SDS011;53654;54.152;19.432;2024-03-17T13:15:59;4.10;;;2.50;;
66741;SDS011;53654;54.152;19.432;2024-03-17T13:18:27;3.50;;;2.40;;
66741;SDS011;53654;54.152;19.432;2024-03-17T13:20:55;2.90;;;2.00;;
66741;SDS011;53654;54.152;19.432;2024-03-17T13:23:25;3.30;;;1.80;;
66741;SDS011;53654;54.152;19.432;2024-03-17T13:25:53;2.80;;;1.50;;
66741;SDS011;53654;54.152;19.432;2024-03-17T13:28:22;2.90;;;1.80;;
66741;SDS011;53654;54.152;19.432;2024-03-17T13:30:50;2.40;;;2.20;;
66741;SDS011;53654;54.152;19.432;2024-03-17T13:33:17;2.60;;;1.80;;
66741;SDS011;53654;54.152;19.432;2024-03-17T13:35:45;2.60;;;1.90;;
66741;SDS011;53654;54.152;19.432;2024-03-17T13:38:13;3.40;;;2.50;;
66741;SDS011;53654;54.152;19.432;2024-03-17T13:40:42;2.60;;;2.10;;
66741;SDS011;53654;54.152;19.432;2024-03-17T13:43:14;5.60;;;4.70;;
66741;SDS011;53654;54.152;19.432;2024-03-17T13:45:42;4.20;;;3.50;;
66741;SDS011;53654;54.152;19.432;2024-03-17T13:48:15;6.00;;;4.80;;
66741;SDS011;53654;54.152;19.432;2024-03-17T13:50:43;4.50;;;2.80;;
66741;SDS011;53654;54.152;19.432;2024-03-17T13:53:12;6.50;;;5.00;;
66741;SDS011;53654;54.152;19.432;2024-03-17T13:55:39;2.70;;;2.10;;
66741;SDS011;53654;54.152;19.432;2024-03-17T13:58:07;2.40;;;1.30;;
66741;SDS011;53654;54.152;19.432;2024-03-17T14:00:35;3.00;;;1.70;;
66741;SDS011;53654;54.152;19.432;2024-03-17T14:03:05;1.90;;;1.40;;
66741;SDS011;53654;54.152;19.432;2024-03-17T14:05:33;2.40;;;1.30;;
66741;SDS011;53654;54.152;19.432;2024-03-17T14:08:03;4.10;;;1.60;;
66741;SDS011;53654;54.152;19.432;2024-03-17T14:10:32;2.10;;;1.30;;
66741;SDS011;53654;54.152;19.432;2024-03-17T14:13:00;2.90;;;1.60;;
66741;SDS011;53654;54.152;19.432;2024-03-17T14:15:28;2.80;;;1.40;;
66741;SDS011;53654;54.152;19.432;2024-03-17T14:17:55;2.90;;;1.50;;
66741;SDS011;53654;54.152;19.432;2024-03-17T14:20:23;2.30;;;1.30;;
66741;SDS011;53654;54.152;19.432;2024-03-17T14:22:52;3.30;;;1.70;;
66741;SDS011;53654;54.152;19.432;2024-03-17T14:25:21;3.50;;;2.40;;
66741;SDS011;53654;54.152;19.432;2024-03-17T14:27:49;3.60;;;1.90;;
66741;SDS011;53654;54.152;19.432;2024-03-17T14:30:17;3.40;;;2.20;;
66741;SDS011;53654;54.152;19.432;2024-03-17T14:32:46;2.80;;;1.80;;
66741;SDS011;53654;54.152;19.432;2024-03-17T14:35:16;4.30;;;2.20;;
66741;SDS011;53654;54.152;19.432;2024-03-17T14:37:45;4.50;;;2.50;;
66741;SDS011;53654;54.152;19.432;2024-03-17T14:40:16;3.50;;;2.00;;
66741;SDS011;53654;54.152;19.432;2024-03-17T14:42:56;5.10;;;1.70;;
66741;SDS011;53654;54.152;19.432;2024-03-17T14:45:24;3.40;;;1.60;;
66741;SDS011;53654;54.152;19.432;2024-03-17T14:47:51;2.60;;;1.80;;
66741;SDS011;53654;54.152;19.432;2024-03-17T14:50:19;2.70;;;1.60;;
66741;SDS011;53654;54.152;19.432;2024-03-17T14:52:47;2.20;;;1.60;;
66741;SDS011;53654;54.152;19.432;2024-03-17T14:55:16;2.20;;;1.60;;
66741;SDS011;53654;54.152;19.432;2024-03-17T14:57:44;3.80;;;1.70;;
66741;SDS011;53654;54.152;19.432;2024-03-17T15:00:12;3.80;;;2.20;;
66741;SDS011;53654;54.152;19.432;2024-03-17T15:02:44;4.00;;;2.70;;
66741;SDS011;53654;54.152;19.432;2024-03-17T15:05:14;4.00;;;2.20;;
66741;SDS011;53654;54.152;19.432;2024-03-17T15:07:42;3.10;;;1.80;;
66741;SDS011;53654;54.152;19.432;2024-03-17T15:10:10;2.90;;;1.70;;
66741;SDS011;53654;54.152;19.432;2024-03-17T15:12:42;3.60;;;1.90;;